createdAt,value
2022-10-31T19:00:44.225Z,13.3
2022-10-31T19:06:08.082Z,13.5
2022-10-31T19:11:30.335Z,13.4
2022-10-31T19:16:53.009Z,13.4
2022-10-31T19:22:16.158Z,13.3
2022-10-31T19:27:43.529Z,13
2022-10-31T19:33:06.127Z,12.6
2022-10-31T19:38:28.418Z,12.6
2022-10-31T19:43:49.409Z,12.4
2022-10-31T19:49:28.186Z,12.4
2022-10-31T19:54:54.871Z,12.3
2022-10-31T20:00:48.603Z,12.3
2022-10-31T20:06:31.108Z,11.8
2022-10-31T20:11:53.940Z,11.4
2022-10-31T20:17:31.869Z,11.3
2022-10-31T20:23:10.204Z,11.1
2022-10-31T20:28:48.490Z,11.1
2022-10-31T20:34:27.981Z,11.4
2022-10-31T20:40:10.591Z,11.4
2022-10-31T20:45:17.906Z,11.2
2022-10-31T20:50:39.685Z,11.5
2022-10-31T20:56:05.769Z,11.6
2022-10-31T21:01:45.677Z,11.6
2022-10-31T21:07:23.408Z,11.6
2022-10-31T21:13:01.751Z,11.5
2022-10-31T21:18:45.175Z,11.5
2022-10-31T21:24:24.465Z,11.6
2022-10-31T21:30:05.190Z,11.6
2022-10-31T21:35:27.675Z,11.1
2022-10-31T21:40:55.305Z,10.9
2022-10-31T21:46:36.986Z,10.6
2022-10-31T21:52:14.854Z,10.3
2022-10-31T21:57:36.568Z,9.8
2022-10-31T22:03:14.905Z,9.6
2022-10-31T22:08:53.447Z,9.6
2022-10-31T22:14:15.160Z,9.6
2022-10-31T22:19:37.967Z,9.6
2022-10-31T22:25:15.937Z,9.3
2022-10-31T22:30:37.836Z,9.4
2022-10-31T22:36:17.289Z,9.6
2022-10-31T22:41:55.004Z,9.5
2022-10-31T22:47:16.593Z,9.3
2022-10-31T22:52:38.239Z,9.3
2022-10-31T22:58:20.555Z,9.1
2022-10-31T23:03:43.745Z,9.1
